createdAt,value
2022-11-05T00:00:18.405Z,6.88
2022-11-05T00:03:03.312Z,7.53
2022-11-05T00:05:48.237Z,7.20
2022-11-05T00:08:33.285Z,8.38
2022-11-05T00:10:59.733Z,8.07
2022-11-05T00:13:44.925Z,7.68
2022-11-05T00:16:40.279Z,7.18
2022-11-05T00:19:06.848Z,6.78
2022-11-05T00:21:52.950Z,6.18
2022-11-05T00:24:38.152Z,8.45
2022-11-05T00:27:04.672Z,10.90
2022-11-05T00:29:31.148Z,5.28
2022-11-05T00:31:57.560Z,6.47
2022-11-05T00:34:24.000Z,6.00
2022-11-05T00:36:50.457Z,5.72
2022-11-05T00:39:16.906Z,7.60
2022-11-05T00:41:43.378Z,5.63
2022-11-05T00:44:28.488Z,7.60
2022-11-05T00:47:14.859Z,6.45
2022-11-05T00:49:41.276Z,5.82
2022-11-05T00:52:26.184Z,5.20
2022-11-05T00:54:52.607Z,5.70
2022-11-05T00:57:18.992Z,6.35
2022-11-05T00:59:45.392Z,5.40
2022-11-05T01:02:11.887Z,6.03
2022-11-05T01:04:38.418Z,6.20
2022-11-05T01:07:04.820Z,5.28
2022-11-05T01:09:31.242Z,4.22
2022-11-05T01:11:57.693Z,7.25
2022-11-05T01:14:24.193Z,9.35
2022-11-05T01:16:50.593Z,6.13
2022-11-05T01:19:17.050Z,6.20
2022-11-05T01:21:43.439Z,7.75
2022-11-05T01:24:10.710Z,6.35
2022-11-05T01:26:37.122Z,5.75
2022-11-05T01:29:03.666Z,5.60
2022-11-05T01:31:30.127Z,6.57
2022-11-05T01:33:56.549Z,5.93
2022-11-05T01:36:22.959Z,5.68
2022-11-05T01:38:49.418Z,5.97
2022-11-05T01:41:15.819Z,5.30
2022-11-05T01:43:54.512Z,6.93
2022-11-05T01:46:24.479Z,6.05
2022-11-05T01:48:52.770Z,5.22
2022-11-05T01:51:23.016Z,7.38
2022-11-05T01:53:52.985Z,8.07
2022-11-05T01:56:41.387Z,7.07
2022-11-05T01:59:17.167Z,7.63
2022-11-05T02:01:44.999Z,6.10
2022-11-05T02:04:15.754Z,8.50
2022-11-05T02:06:46.060Z,5.45
2022-11-05T02:09:20.742Z,7.28
2022-11-05T02:11:47.571Z,8.70
2022-11-05T02:14:13.994Z,6.90
2022-11-05T02:16:58.718Z,4.60
2022-11-05T02:19:43.865Z,5.07
2022-11-05T02:22:43.020Z,6.50
2022-11-05T02:25:15.578Z,10.85
2022-11-05T02:28:19.457Z,7.47
2022-11-05T02:31:10.074Z,7.30
2022-11-05T02:33:58.183Z,6.25
2022-11-05T02:36:39.648Z,7.55
2022-11-05T02:39:30.314Z,6.97
2022-11-05T02:42:38.280Z,7.82
2022-11-05T02:45:37.554Z,9.38
2022-11-05T02:48:06.889Z,7.88
2022-11-05T02:50:55.063Z,10.43
2022-11-05T02:53:40.040Z,9.95
2022-11-05T02:56:22.733Z,8.52
2022-11-05T02:58:49.210Z,9.10
2022-11-05T03:01:15.777Z,6.82
2022-11-05T03:04:09.528Z,6.85
2022-11-05T03:06:51.234Z,9.15
2022-11-05T03:09:36.265Z,7.07
2022-11-05T03:12:14.787Z,7.97
2022-11-05T03:14:52.986Z,8.57
2022-11-05T03:17:34.874Z,6.70
2022-11-05T03:20:19.263Z,14.15
2022-11-05T03:22:51.395Z,5.75
2022-11-05T03:25:20.728Z,9.25
2022-11-05T03:27:50.245Z,6.82
2022-11-05T03:30:18.512Z,8.57
2022-11-05T03:32:51.133Z,9.07
2022-11-05T03:35:20.499Z,8.30
2022-11-05T03:37:49.386Z,7.90
2022-11-05T03:40:16.786Z,7.68
2022-11-05T03:42:46.110Z,9.43
2022-11-05T03:45:19.788Z,9.98
2022-11-05T03:47:47.615Z,7.45
2022-11-05T03:50:26.120Z,12.38
2022-11-05T03:52:54.228Z,8.50
2022-11-05T03:55:27.164Z,10.10
2022-11-05T03:57:55.208Z,10.80
2022-11-05T04:00:22.190Z,10.55
2022-11-05T04:02:48.680Z,8.60
2022-11-05T04:05:15.327Z,10.23
2022-11-05T04:08:01.857Z,10.25
2022-11-05T04:11:06.714Z,7.10
2022-11-05T04:13:33.348Z,9.32
2022-11-05T04:16:18.181Z,11.93
2022-11-05T04:18:44.620Z,11.82
2022-11-05T04:21:29.563Z,10.70
2022-11-05T04:24:08.568Z,11.27
2022-11-05T04:26:40.388Z,10.57
2022-11-05T04:29:26.058Z,13.38
2022-11-05T04:31:52.779Z,10.00
2022-11-05T04:34:19.418Z,8.98
2022-11-05T04:36:46.293Z,11.63
2022-11-05T04:39:12.701Z,13.03
2022-11-05T04:41:39.118Z,11.40
2022-11-05T04:44:05.595Z,12.18
2022-11-05T04:46:32.029Z,11.60
2022-11-05T04:48:58.447Z,9.32
2022-11-05T04:51:24.927Z,9.73
2022-11-05T04:53:51.333Z,11.75
2022-11-05T04:56:22.695Z,12.82
2022-11-05T04:58:49.157Z,10.43
2022-11-05T05:01:20.794Z,12.40
2022-11-05T05:03:48.613Z,10.82
2022-11-05T05:06:15.207Z,10.13
2022-11-05T05:08:41.804Z,10.88
2022-11-05T05:11:11.444Z,11.50
2022-11-05T05:13:37.869Z,10.27
2022-11-05T05:16:24.136Z,11.70
2022-11-05T05:18:51.394Z,12.63
2022-11-05T05:21:37.883Z,12.07
2022-11-05T05:24:09.206Z,12.15
2022-11-05T05:26:36.847Z,12.65
2022-11-05T05:29:04.240Z,10.93
2022-11-05T05:31:30.892Z,8.88
2022-11-05T05:33:57.421Z,10.02
2022-11-05T05:36:24.215Z,9.82
2022-11-05T05:38:50.629Z,11.20
2022-11-05T05:41:17.156Z,11.35
2022-11-05T05:43:43.800Z,13.85
2022-11-05T05:46:12.670Z,9.03
2022-11-05T05:48:39.230Z,10.27
2022-11-05T05:51:10.701Z,10.50
2022-11-05T05:53:37.495Z,10.00
2022-11-05T05:56:04.854Z,8.48
2022-11-05T05:58:37.480Z,12.57
2022-11-05T06:01:06.764Z,8.82
2022-11-05T06:03:33.565Z,10.10
2022-11-05T06:06:03.813Z,7.73
2022-11-05T06:08:31.053Z,12.35
2022-11-05T06:10:57.850Z,11.73
2022-11-05T06:13:24.557Z,12.20
2022-11-05T06:15:50.961Z,11.27
2022-11-05T06:18:17.383Z,6.82
2022-11-05T06:20:43.863Z,7.30
2022-11-05T06:23:10.459Z,14.60
2022-11-05T06:25:41.074Z,13.95
2022-11-05T06:28:07.881Z,11.43
2022-11-05T06:30:34.317Z,9.40
2022-11-05T06:33:06.844Z,9.68
2022-11-05T06:35:33.359Z,9.65
2022-11-05T06:38:02.869Z,8.97
2022-11-05T06:40:29.564Z,9.13
2022-11-05T06:42:55.979Z,12.93
2022-11-05T06:45:22.575Z,10.93
2022-11-05T06:47:54.956Z,8.90
2022-11-05T06:50:21.353Z,9.37
2022-11-05T06:53:04.195Z,12.65
2022-11-05T06:55:31.216Z,14.32
2022-11-05T06:57:58.049Z,11.43
2022-11-05T07:00:24.977Z,14.15
2022-11-05T07:02:51.414Z,10.13
2022-11-05T07:05:18.118Z,13.07
2022-11-05T07:07:45.118Z,9.55
2022-11-05T07:10:16.950Z,12.23
2022-11-05T07:12:43.724Z,13.80
2022-11-05T07:15:11.604Z,10.00
2022-11-05T07:17:38.743Z,12.85
2022-11-05T07:20:06.916Z,10.77
2022-11-05T07:22:34.791Z,8.32
2022-11-05T07:25:01.211Z,11.15
2022-11-05T07:27:27.756Z,9.32
2022-11-05T07:29:54.188Z,11.20
2022-11-05T07:32:20.642Z,13.82
2022-11-05T07:34:47.248Z,7.90
2022-11-05T07:37:16.599Z,8.95
2022-11-05T07:39:43.114Z,7.47
2022-11-05T07:42:13.260Z,15.35
2022-11-05T07:44:39.687Z,12.43
2022-11-05T07:47:06.097Z,11.05
2022-11-05T07:49:32.484Z,11.68
2022-11-05T07:51:58.975Z,7.85
2022-11-05T07:54:26.588Z,10.38
2022-11-05T07:56:53.104Z,8.50
2022-11-05T07:59:19.673Z,8.05
2022-11-05T08:01:46.269Z,8.52
2022-11-05T08:04:12.802Z,8.52
2022-11-05T08:06:39.208Z,8.02
2022-11-05T08:09:05.743Z,8.50
2022-11-05T08:11:32.231Z,8.02
2022-11-05T08:13:58.649Z,9.98
2022-11-05T08:16:25.108Z,8.70
2022-11-05T08:18:51.487Z,9.35
2022-11-05T08:21:18.021Z,6.93
2022-11-05T08:23:45.181Z,9.20
2022-11-05T08:26:11.639Z,9.07
2022-11-05T08:28:38.042Z,10.05
2022-11-05T08:31:04.533Z,8.55
2022-11-05T08:33:31.387Z,9.10
2022-11-05T08:36:01.844Z,13.40
2022-11-05T08:38:28.285Z,7.85
2022-11-05T08:40:57.526Z,9.57
2022-11-05T08:43:24.281Z,10.57
2022-11-05T08:45:50.784Z,7.57
2022-11-05T08:48:18.356Z,11.10
2022-11-05T08:50:46.826Z,6.07
2022-11-05T08:53:13.628Z,6.70
2022-11-05T08:55:40.726Z,8.38
2022-11-05T08:58:12.481Z,7.68
2022-11-05T09:00:39.823Z,7.90
2022-11-05T09:03:08.147Z,6.88
2022-11-05T09:05:37.985Z,5.63
2022-11-05T09:08:09.851Z,7.88
2022-11-05T09:10:37.037Z,5.88
2022-11-05T09:13:04.416Z,5.70
2022-11-05T09:15:31.662Z,6.97
2022-11-05T09:17:58.099Z,7.38
2022-11-05T09:20:24.636Z,7.50
2022-11-05T09:22:51.562Z,5.20
2022-11-05T09:25:18.057Z,11.10
2022-11-05T09:27:44.601Z,7.70
2022-11-05T09:30:12.445Z,4.93
2022-11-05T09:32:38.851Z,6.43
2022-11-05T09:35:05.781Z,5.60
2022-11-05T09:37:32.475Z,7.45
2022-11-05T09:39:58.944Z,4.95
2022-11-05T09:42:31.395Z,7.63
2022-11-05T09:45:21.408Z,6.30
2022-11-05T09:48:00.684Z,5.05
2022-11-05T09:50:37.116Z,5.07
2022-11-05T09:53:04.000Z,6.57
2022-11-05T09:55:36.782Z,5.22
2022-11-05T09:58:09.704Z,5.22
2022-11-05T10:00:36.205Z,9.63
2022-11-05T10:03:14.244Z,7.63
2022-11-05T10:05:41.182Z,6.13
2022-11-05T10:08:18.268Z,6.55
2022-11-05T10:10:50.187Z,5.13
2022-11-05T10:13:25.179Z,6.80
2022-11-05T10:15:57.673Z,6.45
2022-11-05T10:18:31.974Z,6.18
2022-11-05T10:20:58.811Z,5.72
2022-11-05T10:23:26.526Z,5.88
2022-11-05T10:26:05.936Z,6.68
2022-11-05T10:28:33.581Z,3.83
2022-11-05T10:31:03.231Z,6.28
2022-11-05T10:33:36.020Z,7.65
2022-11-05T10:36:05.702Z,4.53
2022-11-05T10:38:32.655Z,7.10
2022-11-05T10:41:20.253Z,6.18
2022-11-05T10:43:51.973Z,7.85
2022-11-05T10:46:40.230Z,6.75
2022-11-05T10:49:38.976Z,4.18
2022-11-05T10:52:35.537Z,3.50
2022-11-05T10:55:05.262Z,5.40
2022-11-05T10:57:37.512Z,6.45
2022-11-05T11:00:19.142Z,6.82
2022-11-05T11:02:55.884Z,5.65
2022-11-05T11:05:26.718Z,7.38
2022-11-05T11:07:59.759Z,3.53
2022-11-05T11:10:26.879Z,5.75
2022-11-05T11:12:53.911Z,7.50
2022-11-05T11:15:20.337Z,3.03
2022-11-05T11:17:47.361Z,8.68
2022-11-05T11:20:29.842Z,4.85
2022-11-05T11:22:59.249Z,4.07
2022-11-05T11:25:27.892Z,3.20
2022-11-05T11:27:54.654Z,3.88
2022-11-05T11:30:21.780Z,4.63
2022-11-05T11:32:49.499Z,7.40
2022-11-05T11:35:23.048Z,4.68
2022-11-05T11:37:52.323Z,4.53
2022-11-05T11:40:49.620Z,4.93
2022-11-05T11:43:43.685Z,4.30
2022-11-05T11:46:20.108Z,3.58
2022-11-05T11:48:48.237Z,3.53
2022-11-05T11:51:35.107Z,7.10
2022-11-05T11:54:02.150Z,5.18
2022-11-05T11:56:30.277Z,4.03
2022-11-05T11:59:13.044Z,5.47
2022-11-05T12:02:17.046Z,3.65
2022-11-05T12:04:53.944Z,5.72
2022-11-05T12:07:35.292Z,4.55
2022-11-05T12:10:30.692Z,6.18
2022-11-05T12:13:18.475Z,2.83
2022-11-05T12:15:55.132Z,7.05
2022-11-05T12:18:46.560Z,5.22
2022-11-05T12:21:52.210Z,6.13
2022-11-05T12:24:26.313Z,2.95
2022-11-05T12:27:02.977Z,5.53
2022-11-05T12:29:54.226Z,6.63
2022-11-05T12:32:51.593Z,4.72
2022-11-05T12:35:29.111Z,7.38
2022-11-05T12:38:05.236Z,6.18
2022-11-05T12:40:49.944Z,4.93
2022-11-05T12:43:34.503Z,5.20
2022-11-05T12:46:19.142Z,3.72
2022-11-05T12:49:03.214Z,2.95
2022-11-05T12:51:53.442Z,5.18
2022-11-05T12:54:49.097Z,4.00
2022-11-05T13:00:02.303Z,4.15
2022-11-05T13:02:34.503Z,3.72
2022-11-05T13:05:04.007Z,9.90
2022-11-05T13:07:34.365Z,3.42
2022-11-05T13:10:28.337Z,6.20
2022-11-05T13:13:13.679Z,2.28
2022-11-05T13:15:48.051Z,2.30
2022-11-05T13:18:19.067Z,3.38
2022-11-05T13:20:50.160Z,4.30
2022-11-05T13:23:26.022Z,2.17
2022-11-05T13:26:19.511Z,4.45
2022-11-05T13:28:52.361Z,8.63
2022-11-05T13:31:21.817Z,5.20
2022-11-05T13:33:49.685Z,5.53
2022-11-05T13:37:16.755Z,2.70
2022-11-05T13:39:45.792Z,4.82
2022-11-05T13:42:46.072Z,2.72
2022-11-05T13:45:37.417Z,4.90
2022-11-05T13:48:34.665Z,6.65
2022-11-05T13:51:28.378Z,5.38
2022-11-05T13:54:33.670Z,4.07
2022-11-05T13:57:34.387Z,3.08
2022-11-05T14:00:19.398Z,3.35
2022-11-05T14:02:51.122Z,6.00
2022-11-05T14:05:30.824Z,5.28
2022-11-05T14:07:59.521Z,4.43
2022-11-05T14:10:30.743Z,4.72
2022-11-05T14:12:58.889Z,4.28
2022-11-05T14:15:28.114Z,2.25
2022-11-05T14:18:06.115Z,3.00
2022-11-05T14:20:32.441Z,3.05
2022-11-05T14:23:17.297Z,1.90
2022-11-05T14:25:43.753Z,2.60
2022-11-05T14:28:35.018Z,5.32
2022-11-05T14:31:19.637Z,4.22
2022-11-05T14:33:59.700Z,3.05
2022-11-05T14:36:28.079Z,6.13
2022-11-05T14:39:01.416Z,2.83
2022-11-05T14:41:30.468Z,2.90
2022-11-05T14:44:04.909Z,3.17
2022-11-05T14:46:47.141Z,1.83
2022-11-05T14:49:26.117Z,2.15
2022-11-05T14:51:55.841Z,5.22
2022-11-05T14:54:42.296Z,2.15
2022-11-05T14:57:13.624Z,3.92
2022-11-05T14:59:57.649Z,3.35
2022-11-05T15:02:27.955Z,4.18
2022-11-05T15:05:33.168Z,2.35
2022-11-05T15:08:00.085Z,4.50
2022-11-05T15:10:30.376Z,4.65
2022-11-05T15:13:03.600Z,3.17
2022-11-05T15:15:42.625Z,5.60
2022-11-05T15:18:15.092Z,3.95
2022-11-05T15:20:42.825Z,4.80
2022-11-05T15:23:21.129Z,3.47
2022-11-05T15:26:13.705Z,4.43
2022-11-05T15:28:43.893Z,2.30
2022-11-05T15:31:13.342Z,3.28
2022-11-05T15:33:40.969Z,2.90
2022-11-05T15:36:24.854Z,1.85
2022-11-05T15:39:15.148Z,3.30
2022-11-05T15:41:38.437Z,4.60
2022-11-05T15:44:04.893Z,3.08
2022-11-05T15:46:31.376Z,2.35
2022-11-05T15:49:01.896Z,3.47
2022-11-05T15:51:29.418Z,4.43
2022-11-05T15:56:51.182Z,4.13
2022-11-05T15:59:22.987Z,4.90
2022-11-05T16:02:03.164Z,7.20
2022-11-05T16:04:32.236Z,4.80
2022-11-05T16:07:01.601Z,5.28
2022-11-05T16:09:30.736Z,8.55
2022-11-05T16:12:19.308Z,6.07
2022-11-05T16:15:04.486Z,9.90
2022-11-05T16:17:45.318Z,8.85
2022-11-05T16:20:32.155Z,9.77
2022-11-05T16:23:00.967Z,8.52
2022-11-05T16:25:40.407Z,14.98
2022-11-05T16:28:20.584Z,12.90
2022-11-05T16:30:57.955Z,13.85
2022-11-05T16:33:27.055Z,15.40
2022-11-05T16:35:53.543Z,12.52
2022-11-05T16:38:20.210Z,13.90
2022-11-05T16:40:46.688Z,13.93
2022-11-05T16:43:21.806Z,11.95
2022-11-05T16:45:48.284Z,11.57
2022-11-05T16:48:15.572Z,13.07
2022-11-05T16:50:42.482Z,13.23
2022-11-05T16:53:08.963Z,13.10
2022-11-05T16:55:37.951Z,15.02
2022-11-05T16:58:04.532Z,14.40
2022-11-05T17:00:31.011Z,12.32
2022-11-05T17:02:57.698Z,13.30
2022-11-05T17:05:31.119Z,13.65
2022-11-05T17:07:57.889Z,15.20
2022-11-05T17:10:25.468Z,13.32
2022-11-05T17:12:52.249Z,15.05
2022-11-05T17:15:22.395Z,18.40
2022-11-05T17:17:48.935Z,12.20
2022-11-05T17:20:38.540Z,12.27
2022-11-05T17:23:06.489Z,11.77
2022-11-05T17:25:33.223Z,12.13
2022-11-05T17:28:00.022Z,12.93
2022-11-05T17:30:26.481Z,9.38
2022-11-05T17:32:53.144Z,13.43
2022-11-05T17:35:20.023Z,9.63
2022-11-05T17:37:46.747Z,10.68
2022-11-05T17:40:16.137Z,11.07
2022-11-05T17:42:42.624Z,10.60
2022-11-05T17:45:10.404Z,9.73
2022-11-05T17:47:37.154Z,10.07
2022-11-05T17:50:04.891Z,10.02
2022-11-05T17:52:31.423Z,9.00
2022-11-05T17:54:57.809Z,9.13
2022-11-05T17:57:24.231Z,10.95
2022-11-05T17:59:50.650Z,10.13
2022-11-05T18:02:17.140Z,10.65
2022-11-05T18:04:43.634Z,14.75
2022-11-05T18:07:10.474Z,13.27
2022-11-05T18:09:37.662Z,14.32
2022-11-05T18:12:04.553Z,14.73
2022-11-05T18:14:31.104Z,12.60
2022-11-05T18:17:00.130Z,16.13
2022-11-05T18:19:27.650Z,17.88
2022-11-05T18:21:54.628Z,17.90
2022-11-05T18:24:21.871Z,17.38
2022-11-05T18:26:48.504Z,22.00
2022-11-05T18:29:15.129Z,21.13
2022-11-05T18:31:41.635Z,24.30
2022-11-05T18:34:10.301Z,21.37
2022-11-05T18:36:36.708Z,18.17
2022-11-05T18:39:04.416Z,15.82
2022-11-05T18:41:31.461Z,15.20
2022-11-05T18:44:01.926Z,10.48
2022-11-05T18:46:56.423Z,13.07
2022-11-05T18:49:16.411Z,11.57
2022-11-05T18:51:42.814Z,13.17
2022-11-05T18:54:09.919Z,14.23
2022-11-05T18:56:37.019Z,16.33
2022-11-05T18:59:34.637Z,16.07
2022-11-05T19:01:50.039Z,12.60
2022-11-05T19:04:17.789Z,17.90
2022-11-05T19:06:44.244Z,15.85
2022-11-05T19:09:12.010Z,14.85
2022-11-05T19:11:39.550Z,11.23
2022-11-05T19:14:06.140Z,10.48
2022-11-05T19:16:32.807Z,14.17
2022-11-05T19:19:01.187Z,15.80
2022-11-05T19:21:28.394Z,13.73
2022-11-05T19:23:57.053Z,10.03
2022-11-05T19:26:28.551Z,7.43
2022-11-05T19:28:58.156Z,7.60
2022-11-05T19:31:24.608Z,8.03
2022-11-05T19:33:51.763Z,7.20
2022-11-05T19:36:20.565Z,7.20
2022-11-05T19:38:49.581Z,6.10
2022-11-05T19:41:21.448Z,8.17
2022-11-05T19:43:47.950Z,6.65
2022-11-05T19:46:16.962Z,9.10
2022-11-05T19:48:44.175Z,8.63
2022-11-05T19:51:15.312Z,7.17
2022-11-05T19:53:42.171Z,6.17
2022-11-05T19:56:12.339Z,8.60
2022-11-05T19:58:38.758Z,7.80
2022-11-05T20:01:05.415Z,7.53
2022-11-05T20:03:31.994Z,9.27
2022-11-05T20:06:03.518Z,10.30
2022-11-05T20:08:30.049Z,12.07
2022-11-05T20:10:56.684Z,9.20
2022-11-05T20:13:23.712Z,12.17
2022-11-05T20:15:50.236Z,8.90
2022-11-05T20:18:16.763Z,11.37
2022-11-05T20:20:44.357Z,9.70
2022-11-05T20:23:11.136Z,11.10
2022-11-05T20:25:37.625Z,9.20
2022-11-05T20:28:04.529Z,9.23
2022-11-05T20:30:31.041Z,10.53
2022-11-05T20:32:57.689Z,9.47
2022-11-05T20:35:24.643Z,8.48
2022-11-05T20:37:53.907Z,5.57
2022-11-05T20:40:20.851Z,4.13
2022-11-05T20:42:47.281Z,5.47
2022-11-05T20:45:13.740Z,5.60
2022-11-05T20:47:40.210Z,5.47
2022-11-05T20:50:07.470Z,6.37
2022-11-05T20:52:33.891Z,6.60
2022-11-05T20:55:01.148Z,7.13
2022-11-05T20:57:27.680Z,6.43
2022-11-05T20:59:54.385Z,7.50
2022-11-05T21:02:20.842Z,8.33
2022-11-05T21:04:47.656Z,9.07
2022-11-05T21:07:14.091Z,8.20
2022-11-05T21:09:40.518Z,10.07
2022-11-05T21:12:12.915Z,8.83
2022-11-05T21:14:41.375Z,9.87
2022-11-05T21:17:09.699Z,8.83
2022-11-05T21:19:36.444Z,6.70
2022-11-05T21:22:04.565Z,7.70
2022-11-05T21:24:32.211Z,8.97
2022-11-05T21:26:58.643Z,6.63
2022-11-05T21:29:25.097Z,7.97
2022-11-05T21:31:51.709Z,5.13
2022-11-05T21:34:18.973Z,8.03
2022-11-05T21:36:45.789Z,5.60
2022-11-05T21:39:13.744Z,4.63
2022-11-05T21:41:40.487Z,5.20
2022-11-05T21:44:06.918Z,5.63
2022-11-05T21:46:33.392Z,6.17
2022-11-05T21:48:59.817Z,4.57
2022-11-05T21:51:44.981Z,3.83
2022-11-05T21:54:29.949Z,4.83
2022-11-05T21:57:14.963Z,5.20
2022-11-05T22:00:07.737Z,4.60
2022-11-05T22:02:34.386Z,4.77
2022-11-05T22:05:02.188Z,4.83
2022-11-05T22:07:34.647Z,5.00
2022-11-05T22:10:01.525Z,7.27
2022-11-05T22:12:28.664Z,4.70
2022-11-05T22:14:55.101Z,5.60
2022-11-05T22:17:21.570Z,5.07
2022-11-05T22:19:47.975Z,4.47
2022-11-05T22:22:14.385Z,6.87
2022-11-05T22:24:41.207Z,5.87
2022-11-05T22:27:11.357Z,6.13
2022-11-05T22:29:37.788Z,5.10
2022-11-05T22:32:05.055Z,7.53
2022-11-05T22:34:31.793Z,5.60
2022-11-05T22:36:58.712Z,5.53
2022-11-05T22:39:25.388Z,8.80
2022-11-05T22:41:56.352Z,6.30
2022-11-05T22:44:23.264Z,5.00
2022-11-05T22:46:49.809Z,6.17
2022-11-05T22:49:16.358Z,7.27
2022-11-05T22:51:42.951Z,7.97
2022-11-05T22:54:09.658Z,7.03
2022-11-05T22:56:40.804Z,7.25
2022-11-05T22:59:10.268Z,7.17
2022-11-05T23:01:36.920Z,7.03
2022-11-05T23:04:03.824Z,7.40
2022-11-05T23:06:50.482Z,4.87
2022-11-05T23:09:47.712Z,4.77
2022-11-05T23:12:31.842Z,6.47
2022-11-05T23:14:59.247Z,5.80
2022-11-05T23:17:45.068Z,6.83
2022-11-05T23:20:15.202Z,6.80
2022-11-05T23:23:00.228Z,7.73
2022-11-05T23:25:26.701Z,5.27
2022-11-05T23:27:53.982Z,7.50
2022-11-05T23:30:25.945Z,6.27
2022-11-05T23:32:53.485Z,7.37
2022-11-05T23:35:40.003Z,7.17
2022-11-05T23:38:25.233Z,6.93
2022-11-05T23:41:10.327Z,5.07
2022-11-05T23:43:55.434Z,7.87
2022-11-05T23:46:40.501Z,4.83
2022-11-05T23:49:06.983Z,6.17
2022-11-05T23:51:33.543Z,5.32
2022-11-05T23:53:59.990Z,6.30
2022-11-05T23:56:26.444Z,5.22
2022-11-05T23:58:52.913Z,9.40
